sensor_id;sensor_type;location;lat;lon;timestamp;P1;durP1;ratioP1;P2;durP2;ratioP2
6640;SDS011;3356;49.360;8.266;2022-08-14T00:00:12;5.03;;;3.73;;
6640;SDS011;3356;49.360;8.266;2022-08-14T00:02:17;6.10;;;3.90;;
6640;SDS011;3356;49.360;8.266;2022-08-14T00:04:18;5.00;;;3.50;;
6640;SDS011;3356;49.360;8.266;2022-08-14T00:06:19;4.17;;;3.77;;
6640;SDS011;3356;49.360;8.266;2022-08-14T00:08:20;4.57;;;3.27;;
6640;SDS011;3356;49.360;8.266;2022-08-14T00:10:22;4.27;;;3.80;;
6640;SDS011;3356;49.360;8.266;2022-08-14T00:12:23;3.97;;;3.60;;
6640;SDS011;3356;49.360;8.266;2022-08-14T00:14:26;4.90;;;3.67;;
6640;SDS011;3356;49.360;8.266;2022-08-14T00:16:28;5.13;;;3.83;;
6640;SDS011;3356;49.360;8.266;2022-08-14T00:18:29;5.20;;;3.53;;
6640;SDS011;3356;49.360;8.266;2022-08-14T00:20:31;5.63;;;3.53;;
6640;SDS011;3356;49.360;8.266;2022-08-14T00:22:34;5.37;;;4.00;;
6640;SDS011;3356;49.360;8.266;2022-08-14T00:24:35;4.83;;;3.57;;
6640;SDS011;3356;49.360;8.266;2022-08-14T00:26:36;6.27;;;4.27;;
6640;SDS011;3356;49.360;8.266;2022-08-14T00:28:37;3.80;;;3.50;;
6640;SDS011;3356;49.360;8.266;2022-08-14T00:30:38;4.07;;;3.67;;
6640;SDS011;3356;49.360;8.266;2022-08-14T00:32:40;7.33;;;4.00;;
6640;SDS011;3356;49.360;8.266;2022-08-14T00:34:42;10.80;;;5.57;;
6640;SDS011;3356;49.360;8.266;2022-08-14T00:36:43;7.60;;;5.63;;
6640;SDS011;3356;49.360;8.266;2022-08-14T00:38:44;6.57;;;5.17;;
6640;SDS011;3356;49.360;8.266;2022-08-14T00:40:45;4.63;;;3.77;;
6640;SDS011;3356;49.360;8.266;2022-08-14T00:42:47;9.03;;;4.30;;
6640;SDS011;3356;49.360;8.266;2022-08-14T00:44:48;4.37;;;3.60;;
6640;SDS011;3356;49.360;8.266;2022-08-14T00:46:50;4.70;;;4.03;;
6640;SDS011;3356;49.360;8.266;2022-08-14T00:48:51;4.17;;;3.83;;
6640;SDS011;3356;49.360;8.266;2022-08-14T00:50:52;4.30;;;3.90;;
6640;SDS011;3356;49.360;8.266;2022-08-14T00:52:55;4.47;;;4.03;;
6640;SDS011;3356;49.360;8.266;2022-08-14T00:54:59;4.13;;;3.60;;
6640;SDS011;3356;49.360;8.266;2022-08-14T00:57:02;4.47;;;3.50;;
6640;SDS011;3356;49.360;8.266;2022-08-14T00:59:04;4.33;;;3.93;;
6640;SDS011;3356;49.360;8.266;2022-08-14T01:01:06;4.70;;;3.93;;
6640;SDS011;3356;49.360;8.266;2022-08-14T01:03:09;4.03;;;3.63;;
6640;SDS011;3356;49.360;8.266;2022-08-14T01:05:10;3.97;;;3.63;;
6640;SDS011;3356;49.360;8.266;2022-08-14T01:07:23;5.53;;;3.83;;
6640;SDS011;3356;49.360;8.266;2022-08-14T01:09:25;5.57;;;3.43;;
6640;SDS011;3356;49.360;8.266;2022-08-14T01:11:29;3.80;;;3.50;;
6640;SDS011;3356;49.360;8.266;2022-08-14T01:13:33;5.30;;;3.93;;
6640;SDS011;3356;49.360;8.266;2022-08-14T01:15:37;4.17;;;3.77;;
6640;SDS011;3356;49.360;8.266;2022-08-14T01:17:38;5.57;;;3.97;;
6640;SDS011;3356;49.360;8.266;2022-08-14T01:19:57;16.30;;;4.87;;
6640;SDS011;3356;49.360;8.266;2022-08-14T01:22:19;9.03;;;4.67;;
6640;SDS011;3356;49.360;8.266;2022-08-14T01:24:21;7.03;;;4.50;;
6640;SDS011;3356;49.360;8.266;2022-08-14T01:26:23;4.50;;;4.20;;
6640;SDS011;3356;49.360;8.266;2022-08-14T01:28:25;4.90;;;4.40;;
6640;SDS011;3356;49.360;8.266;2022-08-14T01:30:26;4.40;;;4.00;;
6640;SDS011;3356;49.360;8.266;2022-08-14T01:32:31;4.30;;;4.00;;
6640;SDS011;3356;49.360;8.266;2022-08-14T01:34:33;6.37;;;4.97;;
6640;SDS011;3356;49.360;8.266;2022-08-14T01:36:34;4.77;;;4.27;;
6640;SDS011;3356;49.360;8.266;2022-08-14T01:38:39;5.10;;;4.33;;
6640;SDS011;3356;49.360;8.266;2022-08-14T01:40:41;7.00;;;4.37;;
6640;SDS011;3356;49.360;8.266;2022-08-14T01:42:46;4.20;;;3.90;;
6640;SDS011;3356;49.360;8.266;2022-08-14T01:44:48;4.57;;;4.17;;
6640;SDS011;3356;49.360;8.266;2022-08-14T01:46:51;4.20;;;3.90;;
6640;SDS011;3356;49.360;8.266;2022-08-14T01:48:55;5.37;;;4.13;;
6640;SDS011;3356;49.360;8.266;2022-08-14T01:50:56;4.17;;;3.87;;
6640;SDS011;3356;49.360;8.266;2022-08-14T01:53:00;5.50;;;4.03;;
6640;SDS011;3356;49.360;8.266;2022-08-14T01:55:05;3.93;;;3.47;;
6640;SDS011;3356;49.360;8.266;2022-08-14T01:57:08;6.10;;;3.87;;
6640;SDS011;3356;49.360;8.266;2022-08-14T02:01:19;4.43;;;3.97;;
6640;SDS011;3356;49.360;8.266;2022-08-14T02:03:20;6.67;;;4.47;;
6640;SDS011;3356;49.360;8.266;2022-08-14T02:05:29;8.97;;;4.40;;
6640;SDS011;3356;49.360;8.266;2022-08-14T02:07:30;8.47;;;4.80;;
6640;SDS011;3356;49.360;8.266;2022-08-14T02:09:32;4.93;;;4.50;;
6640;SDS011;3356;49.360;8.266;2022-08-14T02:11:37;5.23;;;3.93;;
6640;SDS011;3356;49.360;8.266;2022-08-14T02:13:39;4.50;;;4.10;;
6640;SDS011;3356;49.360;8.266;2022-08-14T02:15:40;4.40;;;4.03;;
6640;SDS011;3356;49.360;8.266;2022-08-14T02:17:42;4.33;;;4.03;;
6640;SDS011;3356;49.360;8.266;2022-08-14T02:19:43;5.37;;;4.53;;
6640;SDS011;3356;49.360;8.266;2022-08-14T02:21:45;4.77;;;4.37;;
6640;SDS011;3356;49.360;8.266;2022-08-14T02:23:49;4.87;;;4.00;;
6640;SDS011;3356;49.360;8.266;2022-08-14T02:25:52;4.87;;;4.13;;
6640;SDS011;3356;49.360;8.266;2022-08-14T02:27:53;6.57;;;4.13;;
6640;SDS011;3356;49.360;8.266;2022-08-14T02:29:55;5.00;;;4.50;;
6640;SDS011;3356;49.360;8.266;2022-08-14T02:31:57;6.27;;;4.13;;
6640;SDS011;3356;49.360;8.266;2022-08-14T02:34:05;4.33;;;3.93;;
6640;SDS011;3356;49.360;8.266;2022-08-14T02:36:18;4.53;;;4.13;;
6640;SDS011;3356;49.360;8.266;2022-08-14T02:38:19;6.13;;;4.70;;
6640;SDS011;3356;49.360;8.266;2022-08-14T02:40:20;4.93;;;4.53;;
6640;SDS011;3356;49.360;8.266;2022-08-14T02:42:22;4.87;;;4.47;;
6640;SDS011;3356;49.360;8.266;2022-08-14T02:44:24;5.13;;;4.63;;
6640;SDS011;3356;49.360;8.266;2022-08-14T02:46:26;5.40;;;4.40;;
6640;SDS011;3356;49.360;8.266;2022-08-14T02:48:27;4.97;;;4.37;;
6640;SDS011;3356;49.360;8.266;2022-08-14T02:50:31;4.63;;;4.23;;
6640;SDS011;3356;49.360;8.266;2022-08-14T02:52:36;5.30;;;3.83;;
6640;SDS011;3356;49.360;8.266;2022-08-14T02:54:37;4.87;;;4.40;;
6640;SDS011;3356;49.360;8.266;2022-08-14T02:56:39;5.03;;;4.50;;
6640;SDS011;3356;49.360;8.266;2022-08-14T02:58:49;5.63;;;4.70;;
6640;SDS011;3356;49.360;8.266;2022-08-14T03:00:51;9.63;;;4.87;;
6640;SDS011;3356;49.360;8.266;2022-08-14T03:02:53;7.83;;;5.03;;
6640;SDS011;3356;49.360;8.266;2022-08-14T03:04:54;5.07;;;4.67;;
6640;SDS011;3356;49.360;8.266;2022-08-14T03:06:56;7.10;;;4.60;;
6640;SDS011;3356;49.360;8.266;2022-08-14T03:08:57;4.80;;;4.40;;
6640;SDS011;3356;49.360;8.266;2022-08-14T03:10:59;7.43;;;4.37;;
6640;SDS011;3356;49.360;8.266;2022-08-14T03:13:03;4.93;;;4.53;;
6640;SDS011;3356;49.360;8.266;2022-08-14T03:15:05;5.97;;;4.10;;
6640;SDS011;3356;49.360;8.266;2022-08-14T03:17:08;5.03;;;4.53;;
6640;SDS011;3356;49.360;8.266;2022-08-14T03:19:09;5.07;;;4.57;;
6640;SDS011;3356;49.360;8.266;2022-08-14T03:21:12;4.47;;;4.07;;
6640;SDS011;3356;49.360;8.266;2022-08-14T03:23:14;5.37;;;4.87;;
6640;SDS011;3356;49.360;8.266;2022-08-14T03:25:18;5.13;;;4.63;;
6640;SDS011;3356;49.360;8.266;2022-08-14T03:27:21;4.90;;;4.40;;
6640;SDS011;3356;49.360;8.266;2022-08-14T03:29:23;6.27;;;4.40;;
6640;SDS011;3356;49.360;8.266;2022-08-14T03:31:25;5.00;;;4.60;;
6640;SDS011;3356;49.360;8.266;2022-08-14T03:33:26;5.93;;;5.33;;
6640;SDS011;3356;49.360;8.266;2022-08-14T03:35:29;4.47;;;4.17;;
6640;SDS011;3356;49.360;8.266;2022-08-14T03:37:31;5.30;;;4.90;;
6640;SDS011;3356;49.360;8.266;2022-08-14T03:39:32;5.47;;;5.07;;
6640;SDS011;3356;49.360;8.266;2022-08-14T03:41:34;5.50;;;5.00;;
6640;SDS011;3356;49.360;8.266;2022-08-14T03:43:36;5.50;;;4.67;;
6640;SDS011;3356;49.360;8.266;2022-08-14T03:45:38;5.07;;;4.57;;
6640;SDS011;3356;49.360;8.266;2022-08-14T03:47:40;5.27;;;4.70;;
6640;SDS011;3356;49.360;8.266;2022-08-14T03:49:41;6.03;;;5.23;;
6640;SDS011;3356;49.360;8.266;2022-08-14T03:51:44;5.03;;;4.63;;
6640;SDS011;3356;49.360;8.266;2022-08-14T03:53:47;8.23;;;5.50;;
6640;SDS011;3356;49.360;8.266;2022-08-14T03:55:48;8.63;;;6.43;;
6640;SDS011;3356;49.360;8.266;2022-08-14T03:57:49;9.23;;;6.10;;
6640;SDS011;3356;49.360;8.266;2022-08-14T03:59:50;7.93;;;5.53;;
6640;SDS011;3356;49.360;8.266;2022-08-14T04:01:52;10.73;;;5.37;;
6640;SDS011;3356;49.360;8.266;2022-08-14T04:03:53;6.50;;;5.17;;
6640;SDS011;3356;49.360;8.266;2022-08-14T04:05:57;8.47;;;5.30;;
6640;SDS011;3356;49.360;8.266;2022-08-14T04:07:59;6.63;;;5.33;;
6640;SDS011;3356;49.360;8.266;2022-08-14T04:10:00;9.63;;;5.50;;
6640;SDS011;3356;49.360;8.266;2022-08-14T04:12:01;5.50;;;4.90;;
6640;SDS011;3356;49.360;8.266;2022-08-14T04:14:03;7.23;;;6.00;;
6640;SDS011;3356;49.360;8.266;2022-08-14T04:16:07;11.77;;;6.07;;
6640;SDS011;3356;49.360;8.266;2022-08-14T04:18:10;6.67;;;5.97;;
6640;SDS011;3356;49.360;8.266;2022-08-14T04:20:12;7.00;;;6.13;;
6640;SDS011;3356;49.360;8.266;2022-08-14T04:22:13;6.47;;;5.87;;
6640;SDS011;3356;49.360;8.266;2022-08-14T04:24:14;7.17;;;5.77;;
6640;SDS011;3356;49.360;8.266;2022-08-14T04:26:17;6.10;;;5.53;;
6640;SDS011;3356;49.360;8.266;2022-08-14T04:28:19;7.03;;;5.87;;
6640;SDS011;3356;49.360;8.266;2022-08-14T04:30:21;7.80;;;5.97;;
6640;SDS011;3356;49.360;8.266;2022-08-14T04:32:22;10.13;;;6.87;;
6640;SDS011;3356;49.360;8.266;2022-08-14T04:34:25;6.47;;;5.43;;
6640;SDS011;3356;49.360;8.266;2022-08-14T04:36:27;7.30;;;5.83;;
6640;SDS011;3356;49.360;8.266;2022-08-14T04:38:28;8.57;;;5.90;;
6640;SDS011;3356;49.360;8.266;2022-08-14T04:40:47;6.13;;;5.33;;
6640;SDS011;3356;49.360;8.266;2022-08-14T04:43:07;10.13;;;5.60;;
6640;SDS011;3356;49.360;8.266;2022-08-14T04:45:26;8.57;;;6.37;;
6640;SDS011;3356;49.360;8.266;2022-08-14T04:47:42;7.70;;;6.20;;
6640;SDS011;3356;49.360;8.266;2022-08-14T04:50:18;10.70;;;6.87;;
6640;SDS011;3356;49.360;8.266;2022-08-14T04:52:20;13.37;;;5.83;;
6640;SDS011;3356;49.360;8.266;2022-08-14T04:54:22;7.93;;;5.97;;
6640;SDS011;3356;49.360;8.266;2022-08-14T04:56:26;7.93;;;6.40;;
6640;SDS011;3356;49.360;8.266;2022-08-14T04:58:28;6.50;;;5.63;;
6640;SDS011;3356;49.360;8.266;2022-08-14T05:00:31;11.23;;;6.90;;
6640;SDS011;3356;49.360;8.266;2022-08-14T05:02:32;12.07;;;6.13;;
6640;SDS011;3356;49.360;8.266;2022-08-14T05:04:33;12.70;;;6.57;;
6640;SDS011;3356;49.360;8.266;2022-08-14T05:06:35;12.50;;;6.90;;
6640;SDS011;3356;49.360;8.266;2022-08-14T05:08:37;11.87;;;6.57;;
6640;SDS011;3356;49.360;8.266;2022-08-14T05:10:39;16.77;;;7.40;;
6640;SDS011;3356;49.360;8.266;2022-08-14T05:12:42;11.73;;;6.67;;
6640;SDS011;3356;49.360;8.266;2022-08-14T05:14:44;8.83;;;6.87;;
6640;SDS011;3356;49.360;8.266;2022-08-14T05:16:46;6.77;;;5.87;;
6640;SDS011;3356;49.360;8.266;2022-08-14T05:18:47;8.77;;;6.07;;
6640;SDS011;3356;49.360;8.266;2022-08-14T05:20:51;7.90;;;6.20;;
6640;SDS011;3356;49.360;8.266;2022-08-14T05:22:53;8.87;;;7.50;;
6640;SDS011;3356;49.360;8.266;2022-08-14T05:24:55;10.33;;;6.63;;
6640;SDS011;3356;49.360;8.266;2022-08-14T05:26:56;7.03;;;6.43;;
6640;SDS011;3356;49.360;8.266;2022-08-14T05:28:58;9.70;;;7.13;;
6640;SDS011;3356;49.360;8.266;2022-08-14T05:31:01;7.67;;;6.87;;
6640;SDS011;3356;49.360;8.266;2022-08-14T05:33:06;7.07;;;6.40;;
6640;SDS011;3356;49.360;8.266;2022-08-14T05:35:07;8.13;;;7.40;;
6640;SDS011;3356;49.360;8.266;2022-08-14T05:37:10;8.83;;;7.47;;
6640;SDS011;3356;49.360;8.266;2022-08-14T05:39:12;8.03;;;6.90;;
6640;SDS011;3356;49.360;8.266;2022-08-14T05:41:15;7.70;;;6.90;;
6640;SDS011;3356;49.360;8.266;2022-08-14T05:43:18;13.13;;;11.10;;
6640;SDS011;3356;49.360;8.266;2022-08-14T05:45:19;11.87;;;10.33;;
6640;SDS011;3356;49.360;8.266;2022-08-14T05:47:20;14.50;;;10.77;;
6640;SDS011;3356;49.360;8.266;2022-08-14T05:49:21;17.40;;;11.63;;
6640;SDS011;3356;49.360;8.266;2022-08-14T05:51:23;14.77;;;12.67;;
6640;SDS011;3356;49.360;8.266;2022-08-14T05:53:25;12.93;;;11.67;;
6640;SDS011;3356;49.360;8.266;2022-08-14T05:55:27;14.20;;;12.67;;
6640;SDS011;3356;49.360;8.266;2022-08-14T05:57:28;14.27;;;12.80;;
6640;SDS011;3356;49.360;8.266;2022-08-14T05:59:30;16.63;;;13.30;;
6640;SDS011;3356;49.360;8.266;2022-08-14T06:01:31;13.57;;;12.27;;
6640;SDS011;3356;49.360;8.266;2022-08-14T06:03:33;13.57;;;11.70;;
6640;SDS011;3356;49.360;8.266;2022-08-14T06:05:34;13.63;;;12.03;;
6640;SDS011;3356;49.360;8.266;2022-08-14T06:07:36;14.43;;;12.90;;
6640;SDS011;3356;49.360;8.266;2022-08-14T06:09:37;15.77;;;12.63;;
6640;SDS011;3356;49.360;8.266;2022-08-14T06:11:38;15.27;;;13.67;;
6640;SDS011;3356;49.360;8.266;2022-08-14T06:13:41;16.30;;;13.07;;
6640;SDS011;3356;49.360;8.266;2022-08-14T06:15:43;16.23;;;13.47;;
6640;SDS011;3356;49.360;8.266;2022-08-14T06:17:45;14.63;;;12.90;;
6640;SDS011;3356;49.360;8.266;2022-08-14T06:19:51;14.47;;;12.90;;
6640;SDS011;3356;49.360;8.266;2022-08-14T06:21:52;15.87;;;13.77;;
6640;SDS011;3356;49.360;8.266;2022-08-14T06:23:53;17.10;;;13.23;;
6640;SDS011;3356;49.360;8.266;2022-08-14T06:25:54;18.57;;;14.20;;
6640;SDS011;3356;49.360;8.266;2022-08-14T06:27:55;17.33;;;14.83;;
6640;SDS011;3356;49.360;8.266;2022-08-14T06:29:57;15.53;;;13.13;;
6640;SDS011;3356;49.360;8.266;2022-08-14T06:31:58;16.80;;;13.70;;
6640;SDS011;3356;49.360;8.266;2022-08-14T06:33:59;18.27;;;14.20;;
6640;SDS011;3356;49.360;8.266;2022-08-14T06:36:00;18.27;;;14.27;;
6640;SDS011;3356;49.360;8.266;2022-08-14T06:38:02;24.00;;;15.33;;
6640;SDS011;3356;49.360;8.266;2022-08-14T06:40:03;16.57;;;14.87;;
6640;SDS011;3356;49.360;8.266;2022-08-14T06:42:04;15.40;;;13.90;;
6640;SDS011;3356;49.360;8.266;2022-08-14T06:44:06;18.63;;;14.67;;
6640;SDS011;3356;49.360;8.266;2022-08-14T06:46:07;14.77;;;13.37;;
6640;SDS011;3356;49.360;8.266;2022-08-14T06:48:13;16.67;;;13.03;;
6640;SDS011;3356;49.360;8.266;2022-08-14T06:50:17;18.67;;;14.40;;
6640;SDS011;3356;49.360;8.266;2022-08-14T06:52:20;15.40;;;13.70;;
6640;SDS011;3356;49.360;8.266;2022-08-14T06:54:21;14.40;;;12.90;;
6640;SDS011;3356;49.360;8.266;2022-08-14T06:56:22;15.97;;;13.83;;
6640;SDS011;3356;49.360;8.266;2022-08-14T06:58:24;16.00;;;13.47;;
6640;SDS011;3356;49.360;8.266;2022-08-14T07:00:26;18.13;;;14.13;;
6640;SDS011;3356;49.360;8.266;2022-08-14T07:02:28;16.37;;;14.00;;
6640;SDS011;3356;49.360;8.266;2022-08-14T07:04:47;16.47;;;14.03;;
6640;SDS011;3356;49.360;8.266;2022-08-14T07:07:07;17.03;;;14.17;;
6640;SDS011;3356;49.360;8.266;2022-08-14T07:09:09;21.57;;;14.83;;
6640;SDS011;3356;49.360;8.266;2022-08-14T07:11:10;17.87;;;14.37;;
6640;SDS011;3356;49.360;8.266;2022-08-14T07:13:12;17.70;;;14.97;;
6640;SDS011;3356;49.360;8.266;2022-08-14T07:15:14;18.20;;;13.37;;
6640;SDS011;3356;49.360;8.266;2022-08-14T07:17:15;23.40;;;16.07;;
6640;SDS011;3356;49.360;8.266;2022-08-14T07:19:16;17.47;;;13.77;;
6640;SDS011;3356;49.360;8.266;2022-08-14T07:21:18;17.00;;;14.50;;
6640;SDS011;3356;49.360;8.266;2022-08-14T07:23:20;19.10;;;14.90;;
6640;SDS011;3356;49.360;8.266;2022-08-14T07:25:23;17.73;;;15.27;;
6640;SDS011;3356;49.360;8.266;2022-08-14T07:27:24;23.07;;;14.63;;
6640;SDS011;3356;49.360;8.266;2022-08-14T07:29:26;21.90;;;14.87;;
6640;SDS011;3356;49.360;8.266;2022-08-14T07:31:27;18.50;;;14.43;;
6640;SDS011;3356;49.360;8.266;2022-08-14T07:33:29;17.47;;;13.93;;
6640;SDS011;3356;49.360;8.266;2022-08-14T07:35:32;15.17;;;13.57;;
6640;SDS011;3356;49.360;8.266;2022-08-14T07:37:34;73.90;;;19.87;;
6640;SDS011;3356;49.360;8.266;2022-08-14T07:39:35;14.53;;;12.80;;
6640;SDS011;3356;49.360;8.266;2022-08-14T07:41:36;340.83;;;44.17;;
6640;SDS011;3356;49.360;8.266;2022-08-14T07:43:38;133.27;;;22.90;;
6640;SDS011;3356;49.360;8.266;2022-08-14T07:45:40;68.10;;;16.30;;
6640;SDS011;3356;49.360;8.266;2022-08-14T07:47:42;51.77;;;16.73;;
6640;SDS011;3356;49.360;8.266;2022-08-14T07:50:07;17.27;;;11.27;;
6640;SDS011;3356;49.360;8.266;2022-08-14T07:52:10;13.43;;;10.67;;
6640;SDS011;3356;49.360;8.266;2022-08-14T07:54:11;59.13;;;13.77;;
6640;SDS011;3356;49.360;8.266;2022-08-14T07:56:13;39.88;;;15.23;;
6640;SDS011;3356;49.360;8.266;2022-08-14T07:58:14;12.45;;;11.25;;
6640;SDS011;3356;49.360;8.266;2022-08-14T08:00:18;11.10;;;9.85;;
6640;SDS011;3356;49.360;8.266;2022-08-14T08:02:21;24.45;;;10.65;;
6640;SDS011;3356;49.360;8.266;2022-08-14T08:04:27;52.50;;;15.27;;
6640;SDS011;3356;49.360;8.266;2022-08-14T08:06:29;36.25;;;13.68;;
6640;SDS011;3356;49.360;8.266;2022-08-14T08:08:30;10.93;;;8.48;;
6640;SDS011;3356;49.360;8.266;2022-08-14T08:10:32;8.57;;;7.80;;
6640;SDS011;3356;49.360;8.266;2022-08-14T08:12:34;9.75;;;7.50;;
6640;SDS011;3356;49.360;8.266;2022-08-14T08:14:36;10.90;;;7.88;;
6640;SDS011;3356;49.360;8.266;2022-08-14T08:16:40;13.23;;;7.35;;
6640;SDS011;3356;49.360;8.266;2022-08-14T08:18:42;10.27;;;8.93;;
6640;SDS011;3356;49.360;8.266;2022-08-14T08:20:44;11.20;;;8.77;;
6640;SDS011;3356;49.360;8.266;2022-08-14T08:22:47;9.05;;;8.25;;
6640;SDS011;3356;49.360;8.266;2022-08-14T08:24:50;9.73;;;7.65;;
6640;SDS011;3356;49.360;8.266;2022-08-14T08:26:51;9.32;;;5.60;;
6640;SDS011;3356;49.360;8.266;2022-08-14T08:28:55;6.45;;;5.95;;
6640;SDS011;3356;49.360;8.266;2022-08-14T08:31:02;6.90;;;6.07;;
6640;SDS011;3356;49.360;8.266;2022-08-14T08:33:06;7.43;;;5.78;;
6640;SDS011;3356;49.360;8.266;2022-08-14T08:35:09;8.38;;;6.97;;
6640;SDS011;3356;49.360;8.266;2022-08-14T08:37:16;8.40;;;6.50;;
6640;SDS011;3356;49.360;8.266;2022-08-14T08:39:17;8.68;;;7.78;;
6640;SDS011;3356;49.360;8.266;2022-08-14T08:41:19;7.38;;;6.68;;
6640;SDS011;3356;49.360;8.266;2022-08-14T08:43:21;8.27;;;6.90;;
6640;SDS011;3356;49.360;8.266;2022-08-14T08:45:22;7.18;;;6.30;;
6640;SDS011;3356;49.360;8.266;2022-08-14T08:47:23;9.93;;;6.53;;
6640;SDS011;3356;49.360;8.266;2022-08-14T08:49:33;7.22;;;6.63;;
6640;SDS011;3356;49.360;8.266;2022-08-14T08:51:38;7.72;;;7.03;;
6640;SDS011;3356;49.360;8.266;2022-08-14T08:53:39;8.32;;;6.82;;
6640;SDS011;3356;49.360;8.266;2022-08-14T08:55:41;7.55;;;6.30;;
6640;SDS011;3356;49.360;8.266;2022-08-14T08:57:44;7.47;;;6.47;;
6640;SDS011;3356;49.360;8.266;2022-08-14T08:59:46;6.07;;;5.65;;
6640;SDS011;3356;49.360;8.266;2022-08-14T09:01:51;6.75;;;6.10;;
6640;SDS011;3356;49.360;8.266;2022-08-14T09:04:00;6.07;;;5.57;;
6640;SDS011;3356;49.360;8.266;2022-08-14T09:06:02;8.65;;;6.03;;
6640;SDS011;3356;49.360;8.266;2022-08-14T09:08:13;6.53;;;5.88;;
6640;SDS011;3356;49.360;8.266;2022-08-14T09:10:19;8.48;;;6.15;;
6640;SDS011;3356;49.360;8.266;2022-08-14T09:12:20;6.93;;;6.30;;
6640;SDS011;3356;49.360;8.266;2022-08-14T09:14:22;7.32;;;6.30;;
6640;SDS011;3356;49.360;8.266;2022-08-14T09:16:24;6.15;;;5.65;;
6640;SDS011;3356;49.360;8.266;2022-08-14T09:18:25;7.07;;;6.13;;
6640;SDS011;3356;49.360;8.266;2022-08-14T09:20:27;10.63;;;6.25;;
6640;SDS011;3356;49.360;8.266;2022-08-14T09:22:29;8.27;;;6.88;;
6640;SDS011;3356;49.360;8.266;2022-08-14T09:24:31;6.50;;;5.65;;
6640;SDS011;3356;49.360;8.266;2022-08-14T09:26:33;6.22;;;5.63;;
6640;SDS011;3356;49.360;8.266;2022-08-14T09:28:35;6.10;;;5.20;;
6640;SDS011;3356;49.360;8.266;2022-08-14T09:30:38;7.55;;;5.40;;
6640;SDS011;3356;49.360;8.266;2022-08-14T09:32:51;5.90;;;5.32;;
6640;SDS011;3356;49.360;8.266;2022-08-14T09:37:46;6.60;;;6.07;;
6640;SDS011;3356;49.360;8.266;2022-08-14T09:40:05;5.97;;;5.47;;
6640;SDS011;3356;49.360;8.266;2022-08-14T09:46:53;6.22;;;4.47;;
6640;SDS011;3356;49.360;8.266;2022-08-14T09:48:57;7.78;;;4.20;;
6640;SDS011;3356;49.360;8.266;2022-08-14T09:51:03;6.63;;;3.90;;
6640;SDS011;3356;49.360;8.266;2022-08-14T09:53:08;4.50;;;4.20;;
6640;SDS011;3356;49.360;8.266;2022-08-14T09:55:15;4.60;;;4.20;;
6640;SDS011;3356;49.360;8.266;2022-08-14T09:57:25;4.72;;;4.40;;
6640;SDS011;3356;49.360;8.266;2022-08-14T09:59:37;5.18;;;4.75;;
6640;SDS011;3356;49.360;8.266;2022-08-14T10:01:40;5.40;;;4.57;;
6640;SDS011;3356;49.360;8.266;2022-08-14T10:03:47;8.68;;;4.47;;
6640;SDS011;3356;49.360;8.266;2022-08-14T10:06:11;6.82;;;5.28;;
6640;SDS011;3356;49.360;8.266;2022-08-14T10:08:18;4.97;;;4.68;;
6640;SDS011;3356;49.360;8.266;2022-08-14T10:12:41;4.30;;;3.90;;
6640;SDS011;3356;49.360;8.266;2022-08-14T10:14:44;4.25;;;3.33;;
6640;SDS011;3356;49.360;8.266;2022-08-14T10:16:46;4.10;;;3.80;;
6640;SDS011;3356;49.360;8.266;2022-08-14T10:19:00;4.53;;;4.00;;
6640;SDS011;3356;49.360;8.266;2022-08-14T10:21:07;4.57;;;3.80;;
6640;SDS011;3356;49.360;8.266;2022-08-14T10:25:14;3.50;;;3.22;;
6640;SDS011;3356;49.360;8.266;2022-08-14T10:27:18;4.25;;;3.75;;
6640;SDS011;3356;49.360;8.266;2022-08-14T10:29:57;5.30;;;3.58;;
6640;SDS011;3356;49.360;8.266;2022-08-14T10:31:59;3.70;;;3.40;;
6640;SDS011;3356;49.360;8.266;2022-08-14T10:36:09;4.43;;;3.10;;
6640;SDS011;3356;49.360;8.266;2022-08-14T10:38:11;5.82;;;3.50;;
6640;SDS011;3356;49.360;8.266;2022-08-14T10:40:13;3.30;;;3.00;;
6640;SDS011;3356;49.360;8.266;2022-08-14T10:42:16;3.17;;;2.97;;
6640;SDS011;3356;49.360;8.266;2022-08-14T10:44:21;3.30;;;3.10;;
6640;SDS011;3356;49.360;8.266;2022-08-14T10:46:24;3.45;;;3.25;;
6640;SDS011;3356;49.360;8.266;2022-08-14T10:48:26;2.42;;;2.30;;
6640;SDS011;3356;49.360;8.266;2022-08-14T10:50:30;3.17;;;2.88;;
6640;SDS011;3356;49.360;8.266;2022-08-14T10:52:32;5.43;;;2.60;;
6640;SDS011;3356;49.360;8.266;2022-08-14T10:54:38;4.88;;;2.58;;
6640;SDS011;3356;49.360;8.266;2022-08-14T10:56:44;3.00;;;2.80;;
6640;SDS011;3356;49.360;8.266;2022-08-14T10:58:45;2.70;;;2.58;;
6640;SDS011;3356;49.360;8.266;2022-08-14T11:00:55;5.75;;;2.60;;
6640;SDS011;3356;49.360;8.266;2022-08-14T11:02:59;3.83;;;2.55;;
6640;SDS011;3356;49.360;8.266;2022-08-14T11:05:04;4.57;;;2.60;;
6640;SDS011;3356;49.360;8.266;2022-08-14T11:07:17;3.00;;;2.72;;
6640;SDS011;3356;49.360;8.266;2022-08-14T11:09:18;2.90;;;2.67;;
6640;SDS011;3356;49.360;8.266;2022-08-14T11:11:20;14.48;;;3.10;;
6640;SDS011;3356;49.360;8.266;2022-08-14T11:13:26;2.05;;;1.73;;
6640;SDS011;3356;49.360;8.266;2022-08-14T11:15:29;2.80;;;2.33;;
6640;SDS011;3356;49.360;8.266;2022-08-14T11:17:30;1.88;;;1.77;;
6640;SDS011;3356;49.360;8.266;2022-08-14T11:19:32;3.80;;;2.78;;
6640;SDS011;3356;49.360;8.266;2022-08-14T11:21:34;2.45;;;2.35;;
6640;SDS011;3356;49.360;8.266;2022-08-14T11:23:39;2.40;;;2.20;;
6640;SDS011;3356;49.360;8.266;2022-08-14T11:25:43;9.80;;;2.70;;
6640;SDS011;3356;49.360;8.266;2022-08-14T11:27:45;3.15;;;2.42;;
6640;SDS011;3356;49.360;8.266;2022-08-14T11:29:47;3.15;;;2.38;;
6640;SDS011;3356;49.360;8.266;2022-08-14T11:31:51;5.13;;;2.20;;
6640;SDS011;3356;49.360;8.266;2022-08-14T11:33:55;2.30;;;1.98;;
6640;SDS011;3356;49.360;8.266;2022-08-14T11:35:57;2.88;;;2.25;;
6640;SDS011;3356;49.360;8.266;2022-08-14T11:38:02;4.13;;;2.45;;
6640;SDS011;3356;49.360;8.266;2022-08-14T11:40:13;6.78;;;2.60;;
6640;SDS011;3356;49.360;8.266;2022-08-14T11:42:19;3.10;;;2.45;;
6640;SDS011;3356;49.360;8.266;2022-08-14T11:44:23;4.32;;;2.42;;
6640;SDS011;3356;49.360;8.266;2022-08-14T11:46:25;2.55;;;2.35;;
6640;SDS011;3356;49.360;8.266;2022-08-14T11:48:27;3.38;;;2.10;;
6640;SDS011;3356;49.360;8.266;2022-08-14T11:50:30;4.43;;;2.63;;
6640;SDS011;3356;49.360;8.266;2022-08-14T11:52:33;2.33;;;2.22;;
6640;SDS011;3356;49.360;8.266;2022-08-14T11:54:37;4.38;;;2.40;;
6640;SDS011;3356;49.360;8.266;2022-08-14T11:56:39;2.50;;;2.38;;
6640;SDS011;3356;49.360;8.266;2022-08-14T11:58:41;2.58;;;2.42;;
6640;SDS011;3356;49.360;8.266;2022-08-14T12:00:46;2.47;;;2.28;;
6640;SDS011;3356;49.360;8.266;2022-08-14T12:02:50;5.35;;;2.80;;
6640;SDS011;3356;49.360;8.266;2022-08-14T12:04:53;4.88;;;2.58;;
6640;SDS011;3356;49.360;8.266;2022-08-14T12:06:54;4.68;;;2.35;;
6640;SDS011;3356;49.360;8.266;2022-08-14T12:08:55;2.38;;;2.20;;
6640;SDS011;3356;49.360;8.266;2022-08-14T12:10:57;2.40;;;2.30;;
6640;SDS011;3356;49.360;8.266;2022-08-14T12:12:58;2.78;;;2.58;;
6640;SDS011;3356;49.360;8.266;2022-08-14T12:15:11;2.55;;;2.35;;
6640;SDS011;3356;49.360;8.266;2022-08-14T12:17:12;2.95;;;2.53;;
6640;SDS011;3356;49.360;8.266;2022-08-14T12:19:14;3.03;;;2.72;;
6640;SDS011;3356;49.360;8.266;2022-08-14T12:21:17;2.88;;;2.65;;
6640;SDS011;3356;49.360;8.266;2022-08-14T12:23:24;2.63;;;2.42;;
6640;SDS011;3356;49.360;8.266;2022-08-14T12:25:26;2.75;;;2.55;;
6640;SDS011;3356;49.360;8.266;2022-08-14T12:27:38;5.90;;;2.50;;
6640;SDS011;3356;49.360;8.266;2022-08-14T12:29:49;3.72;;;2.25;;
6640;SDS011;3356;49.360;8.266;2022-08-14T12:31:59;3.13;;;2.60;;
6640;SDS011;3356;49.360;8.266;2022-08-14T12:34:04;3.35;;;2.88;;
6640;SDS011;3356;49.360;8.266;2022-08-14T12:36:08;3.47;;;2.40;;
6640;SDS011;3356;49.360;8.266;2022-08-14T12:41:00;2.60;;;2.40;;
6640;SDS011;3356;49.360;8.266;2022-08-14T12:43:01;3.03;;;2.38;;
6640;SDS011;3356;49.360;8.266;2022-08-14T12:45:03;2.47;;;2.38;;
6640;SDS011;3356;49.360;8.266;2022-08-14T12:47:06;3.00;;;2.80;;
6640;SDS011;3356;49.360;8.266;2022-08-14T12:49:15;2.95;;;2.40;;
6640;SDS011;3356;49.360;8.266;2022-08-14T12:51:18;3.78;;;2.60;;
6640;SDS011;3356;49.360;8.266;2022-08-14T12:53:31;5.05;;;2.65;;
6640;SDS011;3356;49.360;8.266;2022-08-14T12:55:35;5.82;;;2.80;;
6640;SDS011;3356;49.360;8.266;2022-08-14T12:57:39;2.45;;;2.30;;
6640;SDS011;3356;49.360;8.266;2022-08-14T12:59:42;5.03;;;2.45;;
6640;SDS011;3356;49.360;8.266;2022-08-14T13:01:44;2.55;;;2.45;;